Time;durP1;ratioP1;P1;durP2;ratioP2;P2;SDS_P1;SDS_P2;PMS_P1;PMS_P2;Temp;Humidity;BMP_temperature;BMP_pressure;BME280_temperature;BME280_humidity;BME280_pressure;Samples;Min_cycle;Max_cycle;Signal;HPM_P1;HPM_P2
2022/06/22 00:02:22;;;;;;;17.35;7.20;;;;;;;21.46;60.08;93627.47;5081488;28;20028;-87
2022/06/22 00:04:55;;;;;;;9.60;5.75;;;;;;;21.42;60.06;93622.03;5082761;28;20028;-87
2022/06/22 00:07:22;;;;;;;;;;;;;;;21.48;59.91;93624.38;5086164;28;20342;-87
2022/06/22 00:09:53;;;;;;;14.55;5.97;;;;;;;21.40;60.25;93616.19;5086768;28;19904;-88
2022/06/22 00:12:28;;;;;;;14.65;6.63;;;;;;;21.44;60.30;93618.94;5085395;28;20024;-87
2022/06/22 00:14:57;;;;;;;10.80;6.13;;;;;;;21.46;59.90;93624.75;5086300;28;20091;-87
2022/06/22 00:17:31;;;;;;;12.85;6.65;;;;;;;21.43;60.05;93625.50;5086437;28;20016;-87
2022/06/22 00:20:07;;;;;;;14.88;6.78;;;;;;;21.35;59.94;93627.44;5086465;28;20029;-88
2022/06/22 00:22:47;;;;;;;13.02;6.72;;;;;;;21.40;59.45;93632.47;5085948;28;20058;-88
2022/06/22 00:25:19;;;;;;;22.33;7.03;;;;;;;21.48;59.35;93629.78;5086204;28;20069;-87
2022/06/22 00:27:45;;;;;;;13.57;6.38;;;;;;;21.55;58.77;93608.84;5086139;28;20020;-87
2022/06/22 00:30:39;;;;;;;13.05;6.72;;;;;;;21.64;59.31;93617.38;5086198;28;20044;-87
2022/06/22 00:33:16;;;;;;;13.35;6.78;;;;;;;21.73;58.72;93630.53;5081924;28;20047;-87
2022/06/22 00:35:47;;;;;;;16.35;6.82;;;;;;;21.76;58.38;93624.34;5086015;28;20036;-88
2022/06/22 00:38:18;;;;;;;11.38;6.07;;;;;;;21.83;58.25;93624.31;5086057;28;20035;-87
2022/06/22 00:40:46;;;;;;;8.50;6.13;;;;;;;21.84;58.33;93620.47;5085847;28;20024;-87
2022/06/22 00:43:15;;;;;;;16.45;6.70;;;;;;;21.95;58.24;93625.84;5085859;28;20279;-88
2022/06/22 00:45:42;;;;;;;12.52;6.43;;;;;;;21.99;58.09;93621.19;5085793;28;20331;-87
2022/06/22 00:48:30;;;;;;;14.52;6.88;;;;;;;22.07;58.34;93615.75;5085394;28;20040;-87
2022/06/22 00:51:03;;;;;;;12.95;6.93;;;;;;;22.07;57.95;93616.53;5085788;28;20242;-87
2022/06/22 00:53:58;;;;;;;13.23;7.18;;;;;;;22.14;57.98;93619.22;5085806;28;20261;-88
2022/06/22 00:56:51;;;;;;;12.98;6.85;;;;;;;22.22;57.66;93636.25;5082863;28;20048;-88
2022/06/22 00:59:23;;;;;;;14.68;7.05;;;;;;;22.28;57.59;93629.28;5085687;28;20219;-88
2022/06/22 01:02:00;;;;;;;14.23;6.75;;;;;;;22.20;57.61;93633.94;5085766;28;20025;-87
2022/06/22 01:04:37;;;;;;;13.48;7.13;;;;;;;22.24;57.99;93629.28;5085422;28;20222;-87
2022/06/22 01:07:37;;;;;;;16.25;6.70;;;;;;;22.28;57.77;93632.00;5085417;28;20020;-87
2022/06/22 01:10:20;;;;;;;12.85;7.28;;;;;;;22.28;57.43;93623.84;5085386;28;20027;-88
2022/06/22 01:12:48;;;;;;;11.65;6.13;;;;;;;22.29;57.85;93617.28;5085428;28;20091;-88
2022/06/22 01:15:19;;;;;;;15.23;6.93;;;;;;;22.33;57.58;93614.56;5085335;28;20032;-88
2022/06/22 01:17:52;;;;;;;14.27;6.78;;;;;;;22.30;57.79;93615.31;5085078;28;20025;-87
2022/06/22 01:20:25;;;;;;;13.98;6.93;;;;;;;22.29;57.86;93617.28;5085269;28;20024;-87
2022/06/22 01:23:11;;;;;;;15.25;6.85;;;;;;;22.21;57.72;93611.06;5085539;28;20024;-88
2022/06/22 01:25:52;;;;;;;12.77;6.47;;;;;;;22.11;58.23;93616.53;5085112;28;20334;-87
2022/06/22 01:28:18;;;;;;;10.55;6.97;;;;;;;22.02;58.50;93622.34;5085028;28;20095;-87
2022/06/22 01:30:48;;;;;;;16.27;8.75;;;;;;;21.98;58.46;93616.16;5085107;28;20062;-87
2022/06/22 01:33:23;;;;;;;15.20;7.75;;;;;;;21.96;58.62;93600.28;5085017;28;20027;-87
2022/06/22 01:35:56;;;;;;;12.93;8.88;;;;;;;21.98;58.42;93614.25;5085012;28;20029;-87
2022/06/22 01:38:33;;;;;;;21.42;7.97;;;;;;;21.95;58.74;93596.00;5083769;28;20023;-88
2022/06/22 01:41:10;;;;;;;12.35;7.82;;;;;;;22.03;58.16;93602.97;5083562;28;20028;-87
2022/06/22 01:43:46;;;;;;;11.63;7.00;;;;;;;22.02;57.51;93595.22;5084906;28;20023;-87
2022/06/22 01:46:16;;;;;;;15.25;6.85;;;;;;;22.06;57.89;93592.50;5084681;28;20032;-87
2022/06/22 01:48:57;;;;;;;11.48;7.38;;;;;;;22.06;57.61;93589.78;5084467;28;20212;-88
2022/06/22 01:51:31;;;;;;;16.23;7.25;;;;;;;21.99;58.09;93583.22;5084469;28;20028;-88
2022/06/22 01:53:59;;;;;;;20.15;8.35;;;;;;;22.01;57.99;93580.88;5084502;28;20050;-87
2022/06/22 01:56:39;;;;;;;15.95;7.18;;;;;;;22.03;57.26;93577.78;5084472;28;20020;-88
2022/06/22 02:00:02;;;;;;;14.40;7.70;;;;;;;22.08;57.60;93584.72;5083287;28;20012;-87
2022/06/22 02:02:46;;;;;;;16.60;7.28;;;;;;;21.93;58.38;93594.88;5062592;28;20028;-88
2022/06/22 02:05:19;;;;;;;10.23;7.22;;;;;;;21.83;58.69;93599.91;5062525;28;20027;-87
2022/06/22 02:07:52;;;;;;;9.63;7.15;;;;;;;21.82;58.61;93601.09;5076527;28;20319;-88
2022/06/22 02:10:49;;;;;;;19.35;7.85;;;;;;;21.75;58.89;93598.38;5084378;28;20027;-88
2022/06/22 02:13:21;;;;;;;16.20;8.25;;;;;;;21.72;59.42;93604.59;5083980;28;20021;-87
2022/06/22 02:15:56;;;;;;;14.05;6.82;;;;;;;21.64;59.23;93592.97;5084416;28;20062;-88
2022/06/22 02:18:36;;;;;;;12.52;7.93;;;;;;;21.62;59.34;93597.25;5084355;28;20037;-87
2022/06/22 02:21:14;;;;;;;12.13;7.72;;;;;;;21.56;59.72;93594.16;5084016;28;20024;-87
2022/06/22 02:23:40;;;;;;;14.10;7.63;;;;;;;21.47;60.17;93590.28;5082748;28;20067;-88
2022/06/22 02:26:13;;;;;;;10.63;7.30;;;;;;;21.43;60.33;93591.06;5083967;28;20020;-88
2022/06/22 02:28:40;;;;;;;17.38;8.20;;;;;;;21.37;60.93;93589.88;5083364;28;20042;-87
2022/06/22 02:31:05;;;;;;;13.05;8.00;;;;;;;21.32;61.01;93590.25;5083881;28;20034;-88
2022/06/22 02:33:34;;;;;;;14.52;8.10;;;;;;;21.31;61.34;93586.00;5083817;28;20024;-88
2022/06/22 02:36:00;;;;;;;17.50;7.88;;;;;;;21.25;61.50;93592.97;5083497;28;20089;-87
2022/06/22 02:38:27;;;;;;;15.88;8.18;;;;;;;21.19;61.80;93595.28;5083670;28;20027;-88
2022/06/22 02:46:30;;;;;;;19.17;8.40;;;;;;;21.15;62.00;93580.97;5083430;28;20096;-87
2022/06/22 02:49:01;;;;;;;12.93;8.40;;;;;;;21.16;62.29;93589.88;5083236;28;20078;-87
2022/06/22 02:51:31;;;;;;;16.63;8.32;;;;;;;21.16;62.42;93581.75;5083495;28;20273;-88
2022/06/22 02:53:59;;;;;;;14.15;8.15;;;;;;;21.12;62.79;93575.53;5083427;28;20078;-87
2022/06/22 02:56:31;;;;;;;15.73;8.57;;;;;;;21.13;62.59;93582.53;5083337;28;20020;-88
2022/06/22 02:58:59;;;;;;;;;;;;;;;21.11;63.00;93590.28;5083729;28;20016;-88
2022/06/22 03:01:30;;;;;;;13.27;8.93;;;;;;;21.02;62.80;93593.34;5083373;28;19912;-88
2022/06/22 03:03:59;;;;;;;17.90;8.88;;;;;;;20.99;63.11;93584.06;5083539;28;20044;-87
2022/06/22 03:06:33;;;;;;;11.80;7.93;;;;;;;21.02;62.96;93596.84;5083878;28;20255;-88
2022/06/22 03:09:03;;;;;;;15.40;8.52;;;;;;;21.02;63.01;93596.84;5084546;28;20029;-88
2022/06/22 03:11:28;;;;;;;14.35;8.00;;;;;;;21.02;63.13;93601.47;5083837;28;20215;-87
2022/06/22 03:14:03;;;;;;;14.77;9.23;;;;;;;21.06;62.93;93604.19;5083871;28;20035;-88
2022/06/22 03:16:37;;;;;;;15.25;9.48;;;;;;;21.06;62.60;93593.34;5083665;28;20032;-87
2022/06/22 03:19:11;;;;;;;16.60;8.80;;;;;;;20.92;63.59;93604.94;5083412;28;20088;-87
2022/06/22 03:21:39;;;;;;;15.15;8.70;;;;;;;20.84;63.41;93594.09;5083321;28;20029;-87
2022/06/22 03:24:25;;;;;;;17.60;8.80;;;;;;;20.89;63.66;93595.66;5083389;28;20039;-88
2022/06/22 03:26:59;;;;;;;16.45;8.48;;;;;;;20.85;63.50;93603.00;5083483;28;20020;-88
2022/06/22 03:29:39;;;;;;;13.93;9.52;;;;;;;20.83;63.95;93592.53;5083640;28;20078;-87
2022/06/22 03:32:17;;;;;;;12.20;9.18;;;;;;;20.84;64.29;93596.00;5083255;28;20055;-87
2022/06/22 03:34:56;;;;;;;17.52;8.95;;;;;;;20.82;63.83;93599.13;5083109;28;20020;-88
2022/06/22 03:37:31;;;;;;;14.77;9.13;;;;;;;20.86;64.26;93593.69;5083154;28;20302;-88
2022/06/22 03:40:02;;;;;;;12.82;9.10;;;;;;;20.90;64.03;93594.47;5082466;28;20024;-88
2022/06/22 03:42:37;;;;;;;20.02;10.52;;;;;;;20.97;63.59;93602.63;5082559;28;20020;-87
2022/06/22 03:45:10;;;;;;;20.80;9.25;;;;;;;21.04;64.06;93597.22;5082958;28;20117;-87
2022/06/22 03:47:42;;;;;;;19.33;9.13;;;;;;;21.10;64.15;93586.00;5082568;28;20287;-88
2022/06/22 03:50:15;;;;;;;;;;;;;;;21.10;63.32;93613.84;5083166;28;20020;-88
2022/06/22 03:53:10;;;;;;;13.30;8.43;;;;;;;21.09;63.43;93587.94;5082896;28;19904;-88
2022/06/22 03:55:41;;;;;;;18.63;9.68;;;;;;;21.14;63.25;93592.19;5082291;28;20055;-88
2022/06/22 03:58:09;;;;;;;16.88;9.13;;;;;;;21.07;62.96;93598.38;5082757;28;20062;-88
2022/06/22 04:00:35;;;;;;;24.50;9.77;;;;;;;21.10;63.32;93608.44;5082587;28;20021;-88
2022/06/22 04:03:03;;;;;;;16.73;10.18;;;;;;;21.07;63.79;93622.00;5082573;28;20024;-88
2022/06/22 04:05:38;;;;;;;16.58;9.75;;;;;;;21.01;63.87;93619.66;5082499;28;20030;-88
2022/06/22 04:08:04;;;;;;;20.77;10.00;;;;;;;20.91;64.33;93623.13;5082804;28;20028;-88
2022/06/22 04:10:51;;;;;;;20.95;9.50;;;;;;;20.83;65.19;93626.97;5082467;28;20219;-88
2022/06/22 04:13:25;;;;;;;17.52;9.93;;;;;;;20.64;66.02;93617.28;5082569;28;20310;-88
2022/06/22 04:16:07;;;;;;;16.80;9.50;;;;;;;20.66;66.40;93614.97;5082426;28;20020;-88
2022/06/22 04:18:40;;;;;;;19.75;11.65;;;;;;;20.67;66.67;93615.72;5082190;28;20023;-87
2022/06/22 04:21:13;;;;;;;21.10;9.10;;;;;;;20.71;66.76;93614.56;5082368;28;20013;-88
2022/06/22 04:23:50;;;;;;;15.30;9.35;;;;;;;20.74;66.73;93610.31;5082404;28;20017;-88
2022/06/22 04:26:27;;;;;;;23.35;11.05;;;;;;;20.87;66.59;93616.94;5082243;28;20031;-88
2022/06/22 04:28:59;;;;;;;22.20;9.98;;;;;;;20.91;66.47;93611.53;5082423;28;20095;-88
2022/06/22 04:31:30;;;;;;;19.33;9.57;;;;;;;21.00;66.49;93603.78;5082519;28;20027;-88
2022/06/22 04:34:04;;;;;;;18.70;11.02;;;;;;;21.07;66.67;93603.81;5082268;28;20223;-88
2022/06/22 04:36:37;;;;;;;18.08;10.52;;;;;;;21.15;65.62;93607.31;5082325;28;20051;-88
2022/06/22 04:39:14;;;;;;;23.58;10.88;;;;;;;21.20;64.82;93613.09;5082152;28;20027;-89
2022/06/22 04:41:42;;;;;;;15.52;9.88;;;;;;;21.19;64.30;93618.91;5082065;28;20231;-88
2022/06/22 04:44:27;;;;;;;17.85;10.00;;;;;;;21.23;64.54;93625.88;5082275;28;20035;-88
2022/06/22 04:47:07;;;;;;;18.83;9.15;;;;;;;21.35;64.46;93634.78;5082155;28;20055;-87
2022/06/22 04:49:40;;;;;;;19.98;10.23;;;;;;;21.41;64.90;93634.03;5082143;28;20231;-88
2022/06/22 04:52:18;;;;;;;24.52;10.63;;;;;;;21.43;64.77;93634.44;5081885;28;20028;-88
2022/06/22 04:54:47;;;;;;;20.27;9.90;;;;;;;21.48;64.33;93630.56;5085656;28;20298;-88
2022/06/22 04:57:28;;;;;;;21.13;9.93;;;;;;;21.50;63.71;93630.19;5085495;28;20024;-88
2022/06/22 04:59:55;;;;;;;24.00;10.18;;;;;;;21.52;64.21;93631.34;5085805;28;20017;-88
2022/06/22 05:02:24;;;;;;;24.17;10.30;;;;;;;21.59;64.44;93633.25;5085350;28;20024;-88
2022/06/22 05:04:53;;;;;;;16.60;8.93;;;;;;;21.56;63.73;93639.47;5085557;28;20023;-88
2022/06/22 05:07:35;;;;;;;20.23;10.80;;;;;;;21.66;64.12;93643.31;5085309;28;20222;-87
2022/06/22 05:10:24;;;;;;;15.35;8.93;;;;;;;21.77;64.40;93646.81;5085414;28;20093;-88
2022/06/22 05:12:59;;;;;;;16.40;9.50;;;;;;;21.86;63.96;93646.41;5085228;28;20028;-88
2022/06/22 05:15:35;;;;;;;16.38;9.00;;;;;;;21.88;63.81;93642.16;5085493;28;20012;-88
2022/06/22 05:18:04;;;;;;;25.35;9.20;;;;;;;21.96;63.52;93651.03;5085308;28;20017;-89
2022/06/22 05:20:45;;;;;;;18.85;8.80;;;;;;;22.02;63.32;93654.91;5084027;28;20207;-88
2022/06/22 05:23:12;;;;;;;22.98;10.35;;;;;;;22.08;62.79;93645.19;5085185;28;20028;-88
2022/06/22 05:25:38;;;;;;;19.75;9.43;;;;;;;22.17;62.69;93653.72;5084967;28;20035;-88
2022/06/22 05:28:12;;;;;;;13.43;8.98;;;;;;;22.22;62.75;93650.59;5085109;28;20025;-89
2022/06/22 05:30:46;;;;;;;17.77;9.13;;;;;;;22.33;62.71;93639.00;5084892;28;20096;-88
2022/06/22 05:33:17;;;;;;;15.70;10.80;;;;;;;22.41;61.97;93646.72;5084999;28;20192;-88
2022/06/22 05:35:47;;;;;;;20.83;10.05;;;;;;;22.45;61.51;93635.84;5084891;28;20245;-88
2022/06/22 05:38:16;;;;;;;19.83;9.55;;;;;;;22.51;61.60;93634.25;5084990;28;20012;-88
2022/06/22 05:40:45;;;;;;;15.63;9.52;;;;;;;22.57;62.36;93635.41;5084652;28;20130;-87
2022/06/22 05:43:11;;;;;;;15.10;9.18;;;;;;;22.63;61.36;93628.38;5084993;28;20203;-87
2022/06/22 05:45:44;;;;;;;13.73;9.82;;;;;;;22.80;60.87;93639.56;5084655;28;20023;-88
2022/06/22 05:48:23;;;;;;;17.08;9.52;;;;;;;22.92;61.06;93639.09;5084581;28;20033;-88
2022/06/22 05:50:48;;;;;;;23.33;10.50;;;;;;;22.99;60.85;93657.31;5084724;28;20052;-87
2022/06/22 05:53:25;;;;;;;20.48;9.35;;;;;;;23.11;60.15;93656.09;5084740;28;20032;-87
2022/06/22 05:56:21;;;;;;;12.95;8.93;;;;;;;23.20;59.24;93651.00;5084642;28;20032;-87
2022/06/22 05:59:17;;;;;;;16.45;9.82;;;;;;;23.20;59.69;93659.94;5084477;28;20262;-87
2022/06/22 06:02:01;;;;;;;22.35;10.15;;;;;;;23.16;60.45;93651.03;5083132;28;20055;-87
2022/06/22 06:04:34;;;;;;;15.07;9.95;;;;;;;23.16;60.79;93650.25;5083578;28;20030;-87
2022/06/22 06:07:06;;;;;;;15.93;9.65;;;;;;;23.25;60.21;93652.53;5084040;28;20087;-87
2022/06/22 06:09:33;;;;;;;23.45;10.60;;;;;;;23.34;59.55;93655.56;5084154;28;20024;-87
2022/06/22 06:12:18;;;;;;;17.85;10.32;;;;;;;23.30;60.51;93644.69;5084108;28;20028;-87
2022/06/22 06:14:51;;;;;;;19.08;10.85;;;;;;;23.29;60.40;93651.31;5083723;28;20032;-88
2022/06/22 06:17:19;;;;;;;22.48;10.43;;;;;;;23.37;60.00;93647.38;5083836;28;20034;-88
2022/06/22 06:19:50;;;;;;;22.85;10.30;;;;;;;23.44;60.56;93649.28;5084020;28;20032;-88
2022/06/22 06:22:17;;;;;;;22.67;10.20;;;;;;;23.54;60.48;93653.09;5083915;28;20295;-87
2022/06/22 06:27:56;;;;;;;15.75;9.32;;;;;;;23.77;58.77;93645.16;5083784;28;20075;-88
2022/06/22 06:30:30;;;;;;;17.88;9.75;;;;;;;23.85;57.77;93645.84;5083820;28;20059;-88
2022/06/22 06:33:16;;;;;;;13.95;9.32;;;;;;;23.79;59.08;93637.38;5084020;28;20024;-88
2022/06/22 06:35:53;;;;;;;18.73;10.35;;;;;;;23.93;58.62;93644.59;5083565;28;20021;-88
2022/06/22 06:38:21;;;;;;;20.83;11.18;;;;;;;24.08;59.40;93637.09;5083604;28;20076;-88
2022/06/22 06:41:11;;;;;;;22.77;11.82;;;;;;;24.08;58.36;93645.25;5084097;28;20052;-87
2022/06/22 06:43:53;;;;;;;23.48;12.15;;;;;;;24.07;58.55;93629.31;5083936;28;20048;-87
2022/06/22 06:46:46;;;;;;;17.77;11.40;;;;;;;24.25;57.84;93638.09;5083794;28;20250;-88
2022/06/22 06:49:24;;;;;;;18.95;11.63;;;;;;;24.35;58.57;93633.69;5083903;28;20028;-87
2022/06/22 06:51:55;;;;;;;15.57;11.45;;;;;;;24.42;57.55;93641.78;5083732;28;20027;-88
2022/06/22 06:54:37;;;;;;;26.20;11.20;;;;;;;24.57;58.04;93629.56;5083878;28;20108;-88
2022/06/22 06:57:19;;;;;;;29.15;11.82;;;;;;;24.62;57.00;93636.50;5083648;28;20043;-88
2022/06/22 06:59:52;;;;;;;18.63;10.77;;;;;;;24.69;56.99;93628.25;5083920;28;20017;-88
2022/06/22 07:02:32;;;;;;;25.70;11.57;;;;;;;24.73;55.70;93630.94;5082751;28;20016;-88
2022/06/22 07:05:00;;;;;;;30.40;11.95;;;;;;;24.80;56.77;93636.28;5083722;28;20020;-88
2022/06/22 07:07:57;;;;;;;20.95;11.07;;;;;;;24.85;56.09;93635.06;5083580;28;20083;-88
2022/06/22 07:10:41;;;;;;;17.05;10.82;;;;;;;24.96;57.32;93627.53;5082057;28;20029;-88
2022/06/22 07:13:17;;;;;;;22.77;11.27;;;;;;;25.06;56.10;93615.69;5082414;28;20255;-89
2022/06/22 07:15:47;;;;;;;22.20;10.02;;;;;;;25.18;55.32;93617.09;5083287;28;20035;-88
2022/06/22 07:18:47;;;;;;;23.95;11.48;;;;;;;25.24;54.41;93631.84;5082984;28;20016;-88
2022/06/22 07:21:25;;;;;;;20.30;10.88;;;;;;;25.27;52.62;93620.09;5080735;28;20052;-88
2022/06/22 07:24:03;;;;;;;21.20;11.85;;;;;;;25.30;53.00;93627.47;5082808;28;20033;-87
2022/06/22 07:26:48;;;;;;;18.83;12.73;;;;;;;25.23;53.93;93627.56;5083207;28;20020;-88
2022/06/22 07:29:35;;;;;;;21.83;12.38;;;;;;;25.16;54.80;93624.91;5082645;28;20021;-88
2022/06/22 07:32:42;;;;;;;17.65;11.55;;;;;;;25.17;54.95;93621.75;5082952;28;20091;-88
2022/06/22 07:35:25;;;;;;;22.05;12.80;;;;;;;25.23;54.98;93620.13;5082472;28;20374;-88
2022/06/22 07:38:09;;;;;;;23.05;12.77;;;;;;;25.34;54.29;93628.19;5082880;28;20088;-87
2022/06/22 07:40:37;;;;;;;19.90;13.68;;;;;;;25.32;53.98;93618.84;5082826;28;20055;-87
2022/06/22 07:43:04;;;;;;;23.38;14.00;;;;;;;25.38;55.00;93614.47;5083058;28;20031;-88
2022/06/22 07:45:30;;;;;;;23.08;14.10;;;;;;;25.39;53.74;93619.50;5083062;28;20046;-88
2022/06/22 07:48:05;;;;;;;25.85;13.60;;;;;;;25.39;52.34;93616.78;5082683;28;20339;-88
2022/06/22 07:50:45;;;;;;;22.98;12.60;;;;;;;25.50;52.70;93624.03;5082722;28;20024;-88
2022/06/22 07:53:45;;;;;;;22.60;12.30;;;;;;;25.51;52.99;93633.75;5082689;28;20024;-88
2022/06/22 07:56:28;;;;;;;21.70;12.88;;;;;;;25.49;54.39;93625.22;5059107;28;20051;-87
2022/06/22 07:59:09;;;;;;;22.50;13.15;;;;;;;25.57;51.87;93634.84;5082599;28;20091;-88
2022/06/22 08:01:40;;;;;;;25.05;13.07;;;;;;;25.59;52.29;93640.66;5082482;28;20315;-87
2022/06/22 08:04:17;;;;;;;23.13;12.45;;;;;;;25.68;52.15;93634.66;5082595;28;20082;-87
2022/06/22 08:06:57;;;;;;;16.77;11.73;;;;;;;25.68;52.32;93634.66;5082723;28;20024;-88
2022/06/22 08:09:49;;;;;;;22.17;13.13;;;;;;;25.58;53.32;93639.09;5082364;28;20425;-88
2022/06/22 08:12:30;;;;;;;20.63;12.90;;;;;;;25.80;53.57;93644.97;5082371;28;20025;-87
2022/06/22 08:14:56;;;;;;;20.83;13.43;;;;;;;25.87;52.53;93638.63;5081031;28;20138;-88
2022/06/22 08:17:40;;;;;;;22.50;13.43;;;;;;;25.88;52.74;93638.22;5082589;28;20025;-88
2022/06/22 08:20:06;;;;;;;28.58;12.40;;;;;;;25.89;49.91;93653.41;5082514;28;20028;-88
2022/06/22 08:22:32;;;;;;;20.75;11.68;;;;;;;25.83;50.48;93639.47;5082517;28;20040;-88
2022/06/22 08:25:00;;;;;;;24.60;12.45;;;;;;;25.79;51.13;93633.31;5082601;28;20029;-88
2022/06/22 08:27:27;;;;;;;17.63;11.18;;;;;;;25.73;51.04;93632.22;5083734;28;20020;-89
2022/06/22 08:29:54;;;;;;;25.55;10.57;;;;;;;25.69;50.17;93638.94;5086316;28;20028;-88
2022/06/22 08:32:34;;;;;;;20.05;11.00;;;;;;;25.60;50.13;93642.19;5086076;28;20035;-88
2022/06/22 08:35:11;;;;;;;18.25;11.10;;;;;;;25.56;50.97;93631.31;5086590;28;20028;-88
2022/06/22 08:37:49;;;;;;;16.55;10.35;;;;;;;25.55;50.73;93632.50;5086043;28;20322;-87
2022/06/22 08:40:32;;;;;;;24.15;11.80;;;;;;;25.49;52.32;93626.00;5086050;28;20016;-88
2022/06/22 08:43:19;;;;;;;;;;;;;;;25.50;52.08;93627.50;5086493;28;20028;-88
2022/06/22 08:46:03;;;;;;;17.23;11.35;;;;;;;25.52;52.48;93635.28;5086077;28;19932;-88
2022/06/22 08:48:53;;;;;;;15.98;10.27;;;;;;;25.52;50.51;93640.75;5085609;28;20044;-88
2022/06/22 08:51:37;;;;;;;17.38;10.63;;;;;;;25.65;52.79;93638.22;5085970;28;20028;-87
2022/06/22 08:54:15;;;;;;;19.33;11.80;;;;;;;25.73;50.41;93639.66;5085733;28;20024;-88
2022/06/22 08:57:02;;;;;;;25.05;10.25;;;;;;;25.80;50.74;93629.38;5085632;28;20038;-89
2022/06/22 08:59:37;;;;;;;18.60;10.23;;;;;;;25.88;51.56;93623.81;5085704;28;20017;-88
2022/06/22 09:02:29;;;;;;;19.73;10.43;;;;;;;25.92;50.60;93619.06;5085716;28;20027;-88
2022/06/22 09:05:07;;;;;;;22.00;10.32;;;;;;;26.04;51.14;93631.34;5085387;28;20234;-88
2022/06/22 09:07:45;;;;;;;15.82;8.73;;;;;;;25.96;50.27;93617.06;5085455;28;20028;-88
2022/06/22 09:10:10;;;;;;;23.02;9.80;;;;;;;26.10;51.07;93608.59;5085433;28;20031;-89
2022/06/22 09:12:38;;;;;;;15.60;9.88;;;;;;;26.19;50.78;93600.63;5085409;28;20087;-88
2022/06/22 09:15:18;;;;;;;13.50;9.18;;;;;;;26.16;50.13;93606.16;5086215;28;20021;-89
2022/06/22 09:18:05;;;;;;;17.85;9.10;;;;;;;26.14;50.78;93617.50;5086158;28;20020;-89
2022/06/22 09:20:48;;;;;;;21.10;9.30;;;;;;;26.18;49.55;93612.75;5087974;28;20028;-90
2022/06/22 09:23:48;;;;;;;21.02;9.02;;;;;;;26.30;49.69;93629.72;5087464;28;20013;-89
2022/06/22 09:26:23;;;;;;;13.18;7.90;;;;;;;26.14;49.57;93608.53;5033200;28;20195;-88
2022/06/22 09:29:01;;;;;;;13.30;9.27;;;;;;;26.05;49.85;93611.81;5086662;28;20079;-88
2022/06/22 09:31:29;;;;;;;17.20;9.55;;;;;;;26.15;50.08;93616.28;5083816;28;20024;-88
2022/06/22 09:34:31;;;;;;;19.17;7.82;;;;;;;26.12;46.56;93598.03;5085081;28;20032;-88
2022/06/22 09:37:14;;;;;;;18.95;8.18;;;;;;;26.14;46.69;93598.38;5023221;28;20030;-88
2022/06/22 09:39:59;;;;;;;15.88;8.73;;;;;;;26.17;47.73;93586.59;5079275;28;20020;-88
2022/06/22 09:42:54;;;;;;;15.93;8.55;;;;;;;26.29;47.41;93592.66;5085993;28;20016;-89
2022/06/22 09:45:28;;;;;;;15.55;8.35;;;;;;;26.33;47.28;93609.75;5085530;28;20032;-88
2022/06/22 09:48:20;;;;;;;23.20;9.05;;;;;;;26.49;47.88;93579.75;5085414;28;20062;-88
2022/06/22 09:51:27;;;;;;;22.83;8.27;;;;;;;26.56;48.66;93578.81;5085044;28;20020;-88
2022/06/22 09:54:04;;;;;;;19.10;8.05;;;;;;;26.70;48.61;93586.00;5084637;28;20062;-88
2022/06/22 09:56:33;;;;;;;12.75;8.18;;;;;;;26.79;49.13;93589.69;5084582;28;20349;-87
2022/06/22 09:59:11;;;;;;;18.85;9.05;;;;;;;26.58;48.16;93584.66;5083338;28;20017;-88
2022/06/22 10:02:21;;;;;;;16.00;8.18;;;;;;;26.55;48.14;93586.25;5084389;28;20070;-87
2022/06/22 10:05:31;;;;;;;15.93;8.38;;;;;;;26.58;49.68;93593.66;5022670;28;20029;-88
2022/06/22 10:08:23;;;;;;;18.67;7.65;;;;;;;26.73;46.61;93604.28;5019266;28;20060;-88
2022/06/22 10:11:11;;;;;;;15.40;7.47;;;;;;;26.87;47.08;93609.47;5071549;28;20032;-88
2022/06/22 10:14:25;;;;;;;15.75;7.25;;;;;;;26.99;48.26;93602.56;5084261;28;20028;-88
2022/06/22 10:17:18;;;;;;;17.73;7.40;;;;;;;27.02;47.79;93613.41;5084097;28;20016;-89
2022/06/22 10:20:15;;;;;;;16.42;7.68;;;;;;;27.05;46.74;93611.81;5082784;28;20058;-88
2022/06/22 10:22:47;;;;;;;14.90;7.25;;;;;;;27.14;46.64;93613.94;5084043;28;20047;-88
2022/06/22 10:25:56;;;;;;;15.80;7.75;;;;;;;27.16;44.34;93614.28;5084125;28;20020;-88
2022/06/22 10:28:44;;;;;;;23.05;7.50;;;;;;;27.04;46.95;93631.38;5083921;28;20017;-88
2022/06/22 10:31:46;;;;;;;18.88;8.90;;;;;;;27.06;47.47;93618.03;5083829;28;20051;-88
2022/06/22 10:34:39;;;;;;;13.15;8.23;;;;;;;27.03;47.82;93606.00;5083882;28;20024;-88
2022/06/22 10:37:17;;;;;;;14.27;7.22;;;;;;;26.90;47.94;93611.31;5083963;28;20223;-89
2022/06/22 10:40:11;;;;;;;17.45;7.55;;;;;;;26.89;48.73;93604.34;5083936;28;20033;-89
2022/06/22 10:45:40;;;;;;;15.88;8.02;;;;;;;26.51;48.28;93614.84;5083666;28;20035;-88
2022/06/22 10:48:39;;;;;;;14.15;6.95;;;;;;;26.48;48.04;93612.94;5083628;28;20048;-89
2022/06/22 10:51:23;;;;;;;16.27;8.02;;;;;;;26.38;49.69;93620.19;5083231;28;20051;-88
2022/06/22 10:54:10;;;;;;;14.20;7.80;;;;;;;26.49;48.89;93620.72;5083312;28;20016;-88
2022/06/22 10:57:00;;;;;;;15.77;8.30;;;;;;;26.58;49.03;93620.19;5083259;28;20358;-89
2022/06/22 10:59:46;;;;;;;16.45;7.30;;;;;;;26.51;48.94;93621.09;5083035;28;20031;-88
2022/06/22 11:02:33;;;;;;;20.88;8.00;;;;;;;26.57;49.71;93610.44;5083155;28;20044;-88
2022/06/22 11:05:19;;;;;;;20.33;8.02;;;;;;;26.79;50.67;93611.56;5083575;28;20134;-88
2022/06/22 11:08:05;;;;;;;18.10;8.60;;;;;;;27.00;50.16;93613.06;5083044;28;20047;-88
2022/06/22 11:10:54;;;;;;;20.42;9.82;;;;;;;27.16;49.47;93611.56;5082685;28;20067;-88
2022/06/22 11:13:19;;;;;;;14.60;7.50;;;;;;;27.24;48.98;93610.22;5083154;28;20094;-88
2022/06/22 11:16:00;;;;;;;12.70;8.32;;;;;;;27.19;50.55;93600.53;5083089;28;20099;-88
2022/06/22 11:18:42;;;;;;;18.27;7.75;;;;;;;27.24;49.79;93615.69;5083125;28;20020;-88
2022/06/22 11:21:17;;;;;;;13.30;8.52;;;;;;;27.29;50.22;93622.63;5081986;28;20035;-88
2022/06/22 11:23:45;;;;;;;26.27;8.20;;;;;;;27.10;49.72;93618.72;5083180;28;20020;-87
2022/06/22 11:32:39;;;;;;;16.05;7.82;;;;;;;26.55;47.97;93623.75;5083327;28;20043;-90
2022/06/22 11:35:34;;;;;;;17.15;7.43;;;;;;;26.38;49.80;93623.69;5082410;28;20021;-88
2022/06/22 11:38:44;;;;;;;19.42;7.32;;;;;;;26.20;51.95;93623.25;5083079;28;20028;-88
2022/06/22 11:41:39;;;;;;;19.50;8.70;;;;;;;26.00;52.71;93615.78;5079873;28;20032;-88
2022/06/22 11:44:35;;;;;;;20.23;8.23;;;;;;;25.70;54.43;93613.19;5083080;28;20035;-89
2022/06/22 11:47:10;;;;;;;9.82;7.80;;;;;;;25.66;56.36;93607.78;5082930;28;20024;-89
2022/06/22 11:49:51;;;;;;;17.65;8.43;;;;;;;25.80;56.80;93596.59;5083096;28;20066;-89
2022/06/22 11:52:53;;;;;;;13.20;8.23;;;;;;;25.89;56.13;93623.38;5082703;28;20024;-89
2022/06/22 11:55:23;;;;;;;13.38;8.77;;;;;;;25.98;55.25;93606.50;5082889;28;20048;-88
2022/06/22 11:58:06;;;;;;;14.32;8.65;;;;;;;26.24;53.85;93610.31;5082829;28;20024;-89
2022/06/22 12:01:09;;;;;;;22.45;8.27;;;;;;;26.50;52.37;93608.63;5081446;28;20025;-89
2022/06/22 12:03:34;;;;;;;14.45;7.82;;;;;;;26.57;51.29;93613.16;5086350;28;20025;-88
2022/06/22 12:06:14;;;;;;;14.80;7.78;;;;;;;26.70;52.90;93608.63;5086638;28;20081;-88
2022/06/22 12:08:51;;;;;;;20.15;8.23;;;;;;;26.88;52.69;93613.72;5086863;28;20028;-89
2022/06/22 12:12:05;;;;;;;27.73;8.88;;;;;;;27.03;50.78;93625.13;5086634;28;20028;-88
2022/06/22 12:15:09;;;;;;;16.70;9.60;;;;;;;27.14;51.63;93609.25;5067275;28;20118;-88
2022/06/22 12:18:09;;;;;;;21.70;7.93;;;;;;;27.15;47.22;93618.22;5086456;28;20246;-89
2022/06/22 12:20:53;;;;;;;12.38;7.68;;;;;;;27.18;49.09;93612.66;5086478;28;20028;-89
2022/06/22 12:23:44;;;;;;;15.30;7.43;;;;;;;27.24;47.92;93601.25;5086570;28;20039;-89
2022/06/22 12:26:31;;;;;;;12.68;7.30;;;;;;;27.37;48.46;93599.38;5086490;28;20063;-89
2022/06/22 12:29:07;;;;;;;14.50;8.23;;;;;;;27.50;48.96;93608.47;5086141;28;20104;-88
2022/06/22 12:31:39;;;;;;;12.65;7.72;;;;;;;27.61;48.36;93606.22;5086194;28;20021;-89
2022/06/22 12:34:13;;;;;;;18.90;7.93;;;;;;;27.54;48.05;93611.09;5085896;28;20027;-88
2022/06/22 12:36:47;;;;;;;15.90;6.53;;;;;;;27.37;46.98;93613.06;5086132;28;20074;-86